sensor_id;sensor_type;location;lat;lon;timestamp;pressure;altitude;pressure_sealevel;temperature;humidity
41234;BME280;26968;42.686;23.352;2022-10-04T00:01:10;95444.56;;;10.50;65.06
41234;BME280;26968;42.686;23.352;2022-10-04T00:03:43;95459.94;;;10.63;64.58
41234;BME280;26968;42.686;23.352;2022-10-04T00:06:20;95428.91;;;10.33;65.30
41234;BME280;26968;42.686;23.352;2022-10-04T00:08:54;95417.50;;;10.22;65.19
41234;BME280;26968;42.686;23.352;2022-10-04T00:11:28;95442.44;;;10.41;65.64
41234;BME280;26968;42.686;23.352;2022-10-04T00:13:58;95489.88;;;10.68;65.29
41234;BME280;26968;42.686;23.352;2022-10-04T00:16:33;95437.41;;;10.50;65.38
41234;BME280;26968;42.686;23.352;2022-10-04T00:24:21;95480.34;;;10.72;64.68
41234;BME280;26968;42.686;23.352;2022-10-04T00:37:00;95455.13;;;10.90;64.01
41234;BME280;26968;42.686;23.352;2022-10-04T00:39:47;95461.47;;;10.99;63.94
41234;BME280;26968;42.686;23.352;2022-10-04T00:42:30;95447.97;;;10.91;63.72
41234;BME280;26968;42.686;23.352;2022-10-04T00:45:02;95451.69;;;10.90;63.32
41234;BME280;26968;42.686;23.352;2022-10-04T00:50:24;95387.28;;;10.23;64.03
41234;BME280;26968;42.686;23.352;2022-10-04T00:52:54;95413.78;;;10.54;64.56
41234;BME280;26968;42.686;23.352;2022-10-04T00:58:01;95316.00;;;9.66;64.72
41234;BME280;26968;42.686;23.352;2022-10-04T01:00:29;95346.75;;;9.97;65.29
41234;BME280;26968;42.686;23.352;2022-10-04T01:08:12;95355.22;;;9.89;65.20
41234;BME280;26968;42.686;23.352;2022-10-04T01:16:08;95433.69;;;10.31;64.44
41234;BME280;26968;42.686;23.352;2022-10-04T01:18:36;95429.69;;;10.23;64.07
41234;BME280;26968;42.686;23.352;2022-10-04T01:26:40;95430.75;;;10.48;64.22
41234;BME280;26968;42.686;23.352;2022-10-04T01:29:26;95433.44;;;10.53;63.87
41234;BME280;26968;42.686;23.352;2022-10-04T01:31:54;95397.09;;;10.23;63.74
41234;BME280;26968;42.686;23.352;2022-10-04T01:34:22;95383.03;;;10.12;63.87
41234;BME280;26968;42.686;23.352;2022-10-04T01:36:49;95413.03;;;10.28;64.30
41234;BME280;26968;42.686;23.352;2022-10-04T01:39:18;95426.78;;;10.30;64.16
41234;BME280;26968;42.686;23.352;2022-10-04T01:44:30;95384.59;;;9.93;63.93
41234;BME280;26968;42.686;23.352;2022-10-04T01:47:07;95371.63;;;9.81;64.31
41234;BME280;26968;42.686;23.352;2022-10-04T01:49:35;95393.63;;;9.97;64.22
41234;BME280;26968;42.686;23.352;2022-10-04T01:52:07;95429.19;;;10.36;63.72
41234;BME280;26968;42.686;23.352;2022-10-04T01:54:41;95366.84;;;9.93;63.87
41234;BME280;26968;42.686;23.352;2022-10-04T01:57:18;95432.09;;;10.35;63.58
41234;BME280;26968;42.686;23.352;2022-10-04T02:00:06;95354.94;;;9.81;63.27
41234;BME280;26968;42.686;23.352;2022-10-04T02:02:50;95442.16;;;10.23;64.08
41234;BME280;26968;42.686;23.352;2022-10-04T02:05:23;95433.16;;;10.19;63.72
41234;BME280;26968;42.686;23.352;2022-10-04T02:07:52;95444.78;;;10.13;64.69
41234;BME280;26968;42.686;23.352;2022-10-04T02:10:20;95372.41;;;9.72;64.11
41234;BME280;26968;42.686;23.352;2022-10-04T02:12:49;95413.75;;;9.83;64.22
41234;BME280;26968;42.686;23.352;2022-10-04T02:15:18;95409.50;;;9.82;64.71
41234;BME280;26968;42.686;23.352;2022-10-04T02:17:45;95450.59;;;10.04;64.57
41234;BME280;26968;42.686;23.352;2022-10-04T02:20:18;95415.84;;;9.81;64.46
41234;BME280;26968;42.686;23.352;2022-10-04T02:22:57;95454.31;;;9.98;64.79
41234;BME280;26968;42.686;23.352;2022-10-04T02:25:27;95362.28;;;9.38;65.03
41234;BME280;26968;42.686;23.352;2022-10-04T02:27:53;95390.66;;;9.63;65.27
41234;BME280;26968;42.686;23.352;2022-10-04T02:30:19;95442.66;;;10.10;65.33
41234;BME280;26968;42.686;23.352;2022-10-04T02:32:45;95424.88;;;9.90;64.75
41234;BME280;26968;42.686;23.352;2022-10-04T02:35:36;95451.91;;;10.02;65.67
41234;BME280;26968;42.686;23.352;2022-10-04T02:38:12;95460.16;;;10.05;65.09
41234;BME280;26968;42.686;23.352;2022-10-04T02:43:22;95451.88;;;9.82;65.66
41234;BME280;26968;42.686;23.352;2022-10-04T02:46:01;95464.63;;;9.90;65.85
41234;BME280;26968;42.686;23.352;2022-10-04T02:48:51;95445.78;;;9.81;66.12
41234;BME280;26968;42.686;23.352;2022-10-04T02:53:59;95462.22;;;9.88;66.91
41234;BME280;26968;42.686;23.352;2022-10-04T02:56:26;95458.78;;;9.88;66.60
41234;BME280;26968;42.686;23.352;2022-10-04T02:58:54;95466.75;;;9.98;66.86
41234;BME280;26968;42.686;23.352;2022-10-04T03:01:34;95464.88;;;9.93;66.54
41234;BME280;26968;42.686;23.352;2022-10-04T03:04:01;95455.81;;;9.69;66.89
41234;BME280;26968;42.686;23.352;2022-10-04T03:06:29;95452.34;;;9.58;67.24
41234;BME280;26968;42.686;23.352;2022-10-04T03:08:59;95483.94;;;9.75;67.75
41234;BME280;26968;42.686;23.352;2022-10-04T03:11:32;95452.91;;;9.65;66.91
41234;BME280;26968;42.686;23.352;2022-10-04T03:14:01;95364.06;;;9.12;66.96
41234;BME280;26968;42.686;23.352;2022-10-04T03:16:34;95488.19;;;9.81;66.74
41234;BME280;26968;42.686;23.352;2022-10-04T03:19:00;95451.53;;;9.53;67.22
41234;BME280;26968;42.686;23.352;2022-10-04T03:21:26;95484.97;;;9.79;67.47
41234;BME280;26968;42.686;23.352;2022-10-04T03:23:52;95442.81;;;9.62;67.06
41234;BME280;26968;42.686;23.352;2022-10-04T03:26:39;95497.47;;;9.89;66.59
41234;BME280;26968;42.686;23.352;2022-10-04T03:29:08;95503.81;;;9.93;67.08
41234;BME280;26968;42.686;23.352;2022-10-04T03:31:42;95500.16;;;9.99;66.75
41234;BME280;26968;42.686;23.352;2022-10-04T03:34:20;95476.53;;;9.87;66.36
41234;BME280;26968;42.686;23.352;2022-10-04T03:36:47;95495.41;;;10.06;66.01
41234;BME280;26968;42.686;23.352;2022-10-04T03:39:36;95506.25;;;10.04;66.88
41234;BME280;26968;42.686;23.352;2022-10-04T03:42:24;95471.78;;;9.94;65.94
41234;BME280;26968;42.686;23.352;2022-10-04T03:44:54;95456.94;;;9.83;65.66
41234;BME280;26968;42.686;23.352;2022-10-04T03:47:24;95505.47;;;10.09;65.58
41234;BME280;26968;42.686;23.352;2022-10-04T03:49:51;95505.75;;;10.13;65.70
41234;BME280;26968;42.686;23.352;2022-10-04T03:52:24;95508.97;;;10.20;65.87
41234;BME280;26968;42.686;23.352;2022-10-04T03:54:53;95457.47;;;9.95;66.21
41234;BME280;26968;42.686;23.352;2022-10-04T03:57:21;95481.81;;;9.92;65.75
41234;BME280;26968;42.686;23.352;2022-10-04T03:59:48;95446.31;;;9.73;66.62
41234;BME280;26968;42.686;23.352;2022-10-04T04:02:32;95456.34;;;9.66;65.80
41234;BME280;26968;42.686;23.352;2022-10-04T04:05:18;95523.75;;;10.11;65.88
41234;BME280;26968;42.686;23.352;2022-10-04T04:08:21;95449.47;;;9.65;66.12
41234;BME280;26968;42.686;23.352;2022-10-04T04:10:51;95503.34;;;10.11;66.06
41234;BME280;26968;42.686;23.352;2022-10-04T04:16:21;95473.34;;;9.80;66.32
41234;BME280;26968;42.686;23.352;2022-10-04T04:18:51;95495.91;;;10.03;65.59
41234;BME280;26968;42.686;23.352;2022-10-04T04:21:19;95487.16;;;9.97;65.88
41234;BME280;26968;42.686;23.352;2022-10-04T04:24:00;95541.50;;;10.10;66.32
41234;BME280;26968;42.686;23.352;2022-10-04T04:29:17;95537.25;;;9.99;66.45
41234;BME280;26968;42.686;23.352;2022-10-04T04:32:01;95538.81;;;9.95;67.02
41234;BME280;26968;42.686;23.352;2022-10-04T04:34:32;95382.47;;;8.87;66.79
41234;BME280;26968;42.686;23.352;2022-10-04T04:37:00;95480.72;;;9.68;66.86
41234;BME280;26968;42.686;23.352;2022-10-04T04:39:28;95507.22;;;9.78;66.58
41234;BME280;26968;42.686;23.352;2022-10-04T04:44:38;95495.31;;;9.86;66.58
41234;BME280;26968;42.686;23.352;2022-10-04T04:47:05;95518.16;;;10.02;65.98
41234;BME280;26968;42.686;23.352;2022-10-04T04:49:36;95522.69;;;10.17;65.87
41234;BME280;26968;42.686;23.352;2022-10-04T04:52:04;95502.00;;;10.03;66.56
41234;BME280;26968;42.686;23.352;2022-10-04T04:54:30;95537.09;;;10.36;65.62
41234;BME280;26968;42.686;23.352;2022-10-04T04:56:55;95500.69;;;10.06;65.36
41234;BME280;26968;42.686;23.352;2022-10-04T04:59:23;95536.25;;;10.25;65.20
41234;BME280;26968;42.686;23.352;2022-10-04T05:01:51;95512.63;;;10.14;65.44
41234;BME280;26968;42.686;23.352;2022-10-04T05:04:26;95550.56;;;10.19;65.54
41234;BME280;26968;42.686;23.352;2022-10-04T05:07:02;95435.66;;;9.53;65.14
41234;BME280;26968;42.686;23.352;2022-10-04T05:09:36;95559.31;;;10.25;65.18
41234;BME280;26968;42.686;23.352;2022-10-04T05:12:18;95559.88;;;10.27;64.95
41234;BME280;26968;42.686;23.352;2022-10-04T05:14:52;95529.56;;;10.02;64.98
41234;BME280;26968;42.686;23.352;2022-10-04T05:17:32;95521.66;;;10.13;65.13
41234;BME280;26968;42.686;23.352;2022-10-04T05:20:00;95553.78;;;10.31;64.76
41234;BME280;26968;42.686;23.352;2022-10-04T05:22:27;95529.56;;;10.02;64.26
41234;BME280;26968;42.686;23.352;2022-10-04T05:25:00;95560.38;;;10.24;64.71
41234;BME280;26968;42.686;23.352;2022-10-04T05:27:40;95563.81;;;10.19;65.50
41234;BME280;26968;42.686;23.352;2022-10-04T05:30:13;95571.16;;;10.02;65.78
41234;BME280;26968;42.686;23.352;2022-10-04T05:33:08;95565.59;;;10.03;65.78
41234;BME280;26968;42.686;23.352;2022-10-04T05:41:29;95580.75;;;10.13;65.52
41234;BME280;26968;42.686;23.352;2022-10-04T05:43:56;95528.88;;;9.60;66.00
41234;BME280;26968;42.686;23.352;2022-10-04T05:49:04;95493.84;;;9.38;65.94
41234;BME280;26968;42.686;23.352;2022-10-04T05:51:34;95529.16;;;9.63;66.12
41234;BME280;26968;42.686;23.352;2022-10-04T05:54:03;95536.84;;;9.70;66.38
41234;BME280;26968;42.686;23.352;2022-10-04T06:05:27;95624.72;;;10.09;66.63
41234;BME280;26968;42.686;23.352;2022-10-04T06:11:29;95588.09;;;9.96;66.59
41234;BME280;26968;42.686;23.352;2022-10-04T06:14:00;95625.84;;;10.23;66.34
41234;BME280;26968;42.686;23.352;2022-10-04T06:19:22;95630.81;;;10.15;66.99
41234;BME280;26968;42.686;23.352;2022-10-04T06:22:13;95626.06;;;10.12;67.37
41234;BME280;26968;42.686;23.352;2022-10-04T06:24:43;95631.84;;;10.08;66.73
41234;BME280;26968;42.686;23.352;2022-10-04T06:29:58;95639.75;;;9.93;67.47
41234;BME280;26968;42.686;23.352;2022-10-04T06:40:37;95644.88;;;10.15;66.66
41234;BME280;26968;42.686;23.352;2022-10-04T06:43:22;95640.94;;;10.23;66.25
41234;BME280;26968;42.686;23.352;2022-10-04T06:58:48;95623.47;;;10.22;64.96
41234;BME280;26968;42.686;23.352;2022-10-04T07:12:31;95614.56;;;10.63;63.15
41234;BME280;26968;42.686;23.352;2022-10-04T07:15:00;95652.25;;;10.86;63.25
41234;BME280;26968;42.686;23.352;2022-10-04T07:17:31;95611.38;;;10.66;62.99
41234;BME280;26968;42.686;23.352;2022-10-04T07:20:02;95635.56;;;10.80;61.94
41234;BME280;26968;42.686;23.352;2022-10-04T07:27:49;95675.41;;;11.20;60.55
41234;BME280;26968;42.686;23.352;2022-10-04T07:30:42;95669.56;;;11.18;60.39
41234;BME280;26968;42.686;23.352;2022-10-04T07:33:14;95642.47;;;11.06;60.15
41234;BME280;26968;42.686;23.352;2022-10-04T07:35:45;95651.50;;;11.20;60.63
41234;BME280;26968;42.686;23.352;2022-10-04T07:43:27;95668.22;;;11.16;60.00
41234;BME280;26968;42.686;23.352;2022-10-04T07:46:03;95592.03;;;10.71;58.80
41234;BME280;26968;42.686;23.352;2022-10-04T07:48:30;95671.66;;;11.06;58.69
41234;BME280;26968;42.686;23.352;2022-10-04T07:51:20;95702.75;;;11.31;59.15
41234;BME280;26968;42.686;23.352;2022-10-04T07:53:53;95602.09;;;10.59;59.25
41234;BME280;26968;42.686;23.352;2022-10-04T07:56:37;95609.03;;;10.75;59.41
41234;BME280;26968;42.686;23.352;2022-10-04T08:10:33;95708.88;;;11.57;58.17
41234;BME280;26968;42.686;23.352;2022-10-04T08:15:36;95704.34;;;11.52;58.30
41234;BME280;26968;42.686;23.352;2022-10-04T08:20:46;95668.25;;;11.51;58.26
41234;BME280;26968;42.686;23.352;2022-10-04T09:19:10;95672.06;;;12.84;53.75
41234;BME280;26968;42.686;23.352;2022-10-04T09:27:02;95650.53;;;12.81;53.94
41234;BME280;26968;42.686;23.352;2022-10-04T09:29:45;95602.56;;;12.47;54.16
41234;BME280;26968;42.686;23.352;2022-10-04T10:09:15;95671.72;;;16.23;44.51
41234;BME280;26968;42.686;23.352;2022-10-04T10:11:59;95674.88;;;16.38;43.60
41234;BME280;26968;42.686;23.352;2022-10-04T10:17:49;95684.41;;;16.17;44.08
41234;BME280;26968;42.686;23.352;2022-10-04T10:53:15;95705.94;;;15.42;46.62
41234;BME280;26968;42.686;23.352;2022-10-04T10:56:08;95686.94;;;15.43;46.50
41234;BME280;26968;42.686;23.352;2022-10-04T11:07:52;95685.31;;;14.91;47.81
41234;BME280;26968;42.686;23.352;2022-10-04T11:38:29;95674.78;;;16.16;44.57
41234;BME280;26968;42.686;23.352;2022-10-04T11:41:11;95683.41;;;16.54;44.33
41234;BME280;26968;42.686;23.352;2022-10-04T11:57:50;95637.41;;;15.97;44.53
41234;BME280;26968;42.686;23.352;2022-10-04T12:00:23;95702.59;;;16.01;44.87
41234;BME280;26968;42.686;23.352;2022-10-04T12:14:13;95647.47;;;15.22;45.92
41234;BME280;26968;42.686;23.352;2022-10-04T12:16:54;95684.78;;;15.45;45.47
41234;BME280;26968;42.686;23.352;2022-10-04T12:25:25;95695.47;;;16.10;43.88
41234;BME280;26968;42.686;23.352;2022-10-04T12:34:03;95685.63;;;17.02;42.23
41234;BME280;26968;42.686;23.352;2022-10-04T12:36:27;95688.63;;;17.58;41.77
41234;BME280;26968;42.686;23.352;2022-10-04T12:50:30;95696.13;;;16.02;43.26
41234;BME280;26968;42.686;23.352;2022-10-04T12:56:04;95697.78;;;15.71;43.53
41234;BME280;26968;42.686;23.352;2022-10-04T12:58:49;95694.25;;;15.89;43.56
41234;BME280;26968;42.686;23.352;2022-10-04T13:01:30;95672.50;;;16.09;43.25
41234;BME280;26968;42.686;23.352;2022-10-04T13:04:25;95642.97;;;16.14;42.66
41234;BME280;26968;42.686;23.352;2022-10-04T13:06:58;95697.69;;;16.77;42.27
41234;BME280;26968;42.686;23.352;2022-10-04T13:09:41;95617.69;;;16.20;41.97
41234;BME280;26968;42.686;23.352;2022-10-04T13:12:20;95683.88;;;16.42;41.89
41234;BME280;26968;42.686;23.352;2022-10-04T13:15:40;95584.19;;;15.50;42.37
41234;BME280;26968;42.686;23.352;2022-10-04T13:18:20;95688.13;;;16.02;43.63
41234;BME280;26968;42.686;23.352;2022-10-04T13:21:01;95691.41;;;15.99;43.30
41234;BME280;26968;42.686;23.352;2022-10-04T13:23:49;95679.75;;;15.76;43.59
41234;BME280;26968;42.686;23.352;2022-10-04T13:32:01;95610.38;;;15.01;45.08
41234;BME280;26968;42.686;23.352;2022-10-04T13:45:53;95693.31;;;15.29;45.24
41234;BME280;26968;42.686;23.352;2022-10-04T14:22:23;95729.59;;;14.74;46.79
41234;BME280;26968;42.686;23.352;2022-10-04T14:25:22;95738.66;;;14.54;45.45
41234;BME280;26968;42.686;23.352;2022-10-04T14:28:09;95739.66;;;14.58;45.65
41234;BME280;26968;42.686;23.352;2022-10-04T14:31:19;95739.16;;;14.80;46.48
41234;BME280;26968;42.686;23.352;2022-10-04T14:39:47;95752.13;;;15.10;45.55
41234;BME280;26968;42.686;23.352;2022-10-04T14:53:36;95729.19;;;14.38;46.97
41234;BME280;26968;42.686;23.352;2022-10-04T14:59:39;95774.50;;;14.14;48.33
41234;BME280;26968;42.686;23.352;2022-10-04T15:05:37;95776.88;;;13.86;49.41
41234;BME280;26968;42.686;23.352;2022-10-04T15:15:59;95803.44;;;13.63;50.91
41234;BME280;26968;42.686;23.352;2022-10-04T15:21:03;95802.44;;;13.53;51.76
41234;BME280;26968;42.686;23.352;2022-10-04T15:23:39;95787.59;;;13.42;51.77
41234;BME280;26968;42.686;23.352;2022-10-04T15:34:36;95816.16;;;13.32;53.00
41234;BME280;26968;42.686;23.352;2022-10-04T15:37:37;95736.25;;;12.77;53.09
41234;BME280;26968;42.686;23.352;2022-10-04T15:43:02;95817.22;;;13.31;53.33
41234;BME280;26968;42.686;23.352;2022-10-04T15:48:33;95826.09;;;13.11;53.32
41234;BME280;26968;42.686;23.352;2022-10-04T15:51:37;95731.88;;;12.43;53.79
41234;BME280;26968;42.686;23.352;2022-10-04T15:56:52;95822.22;;;12.78;54.31
41234;BME280;26968;42.686;23.352;2022-10-04T15:59:21;95829.69;;;12.81;54.63
41234;BME280;26968;42.686;23.352;2022-10-04T16:07:49;95842.44;;;12.84;55.06
41234;BME280;26968;42.686;23.352;2022-10-04T16:10:30;95836.50;;;12.97;55.41
41234;BME280;26968;42.686;23.352;2022-10-04T16:15:42;95841.88;;;12.92;55.29
41234;BME280;26968;42.686;23.352;2022-10-04T16:21:48;95860.53;;;12.87;55.92
41234;BME280;26968;42.686;23.352;2022-10-04T16:29:26;95871.75;;;12.69;56.46
41234;BME280;26968;42.686;23.352;2022-10-04T16:32:00;95871.47;;;12.60;56.46
41234;BME280;26968;42.686;23.352;2022-10-04T16:34:54;95879.47;;;12.65;56.35
41234;BME280;26968;42.686;23.352;2022-10-04T16:37:55;95878.13;;;12.68;56.39
41234;BME280;26968;42.686;23.352;2022-10-04T16:43:26;95889.28;;;12.75;56.34
41234;BME280;26968;42.686;23.352;2022-10-04T16:46:08;95728.25;;;11.73;56.30
41234;BME280;26968;42.686;23.352;2022-10-04T16:48:48;95891.97;;;12.80;56.08
41234;BME280;26968;42.686;23.352;2022-10-04T16:56:27;95909.28;;;12.62;56.70
41234;BME280;26968;42.686;23.352;2022-10-04T16:59:02;95911.66;;;12.59;56.87
41234;BME280;26968;42.686;23.352;2022-10-04T17:07:01;95880.56;;;12.44;56.70
41234;BME280;26968;42.686;23.352;2022-10-04T17:09:45;95919.13;;;12.72;56.70
41234;BME280;26968;42.686;23.352;2022-10-04T17:12:52;95931.59;;;12.66;56.81
41234;BME280;26968;42.686;23.352;2022-10-04T17:15:23;95932.16;;;12.63;57.18
41234;BME280;26968;42.686;23.352;2022-10-04T17:28:57;95944.94;;;12.61;57.44
41234;BME280;26968;42.686;23.352;2022-10-04T17:41:58;95918.31;;;12.16;58.33
41234;BME280;26968;42.686;23.352;2022-10-04T17:50:01;95972.31;;;12.21;58.52
41234;BME280;26968;42.686;23.352;2022-10-04T17:52:52;95964.34;;;12.26;58.26
41234;BME280;26968;42.686;23.352;2022-10-04T17:55:57;95974.72;;;12.33;58.35
41234;BME280;26968;42.686;23.352;2022-10-04T17:58:49;95957.94;;;12.07;58.45
41234;BME280;26968;42.686;23.352;2022-10-04T18:01:36;95988.00;;;12.23;58.93
41234;BME280;26968;42.686;23.352;2022-10-04T18:04:07;95981.88;;;12.17;58.94
41234;BME280;26968;42.686;23.352;2022-10-04T18:06:47;95994.63;;;12.15;58.69
41234;BME280;26968;42.686;23.352;2022-10-04T18:09:39;95999.69;;;12.12;59.15
41234;BME280;26968;42.686;23.352;2022-10-04T18:12:14;95998.66;;;12.23;59.15
41234;BME280;26968;42.686;23.352;2022-10-04T18:14:50;95997.09;;;12.47;58.70
41234;BME280;26968;42.686;23.352;2022-10-04T18:17:34;95980.06;;;12.28;58.35
41234;BME280;26968;42.686;23.352;2022-10-04T18:22:41;96010.38;;;12.37;59.14
41234;BME280;26968;42.686;23.352;2022-10-04T18:25:19;96007.16;;;12.30;59.19
41234;BME280;26968;42.686;23.352;2022-10-04T18:30:24;96011.41;;;12.36;58.79
41234;BME280;26968;42.686;23.352;2022-10-04T18:32:54;96015.69;;;12.52;58.45
41234;BME280;26968;42.686;23.352;2022-10-04T18:37:49;96007.97;;;12.25;58.84
41234;BME280;26968;42.686;23.352;2022-10-04T18:42:54;96006.88;;;12.16;59.20
41234;BME280;26968;42.686;23.352;2022-10-04T18:45:31;96000.22;;;12.09;59.62
41234;BME280;26968;42.686;23.352;2022-10-04T18:48:01;96013.50;;;12.14;59.94
41234;BME280;26968;42.686;23.352;2022-10-04T18:50:39;96007.38;;;12.13;59.61
41234;BME280;26968;42.686;23.352;2022-10-04T18:56:06;96022.81;;;12.11;59.55
41234;BME280;26968;42.686;23.352;2022-10-04T19:04:34;96024.69;;;12.16;59.72
41234;BME280;26968;42.686;23.352;2022-10-04T19:07:17;95980.72;;;11.78;60.26
41234;BME280;26968;42.686;23.352;2022-10-04T19:20:53;96018.03;;;12.03;59.91
41234;BME280;26968;42.686;23.352;2022-10-04T19:26:17;96036.69;;;12.44;59.44
41234;BME280;26968;42.686;23.352;2022-10-04T19:32:00;96040.72;;;12.66;58.77
41234;BME280;26968;42.686;23.352;2022-10-04T19:37:25;96041.00;;;12.55;59.20
41234;BME280;26968;42.686;23.352;2022-10-04T19:40:21;96022.63;;;12.53;59.03
41234;BME280;26968;42.686;23.352;2022-10-04T19:48:18;96052.69;;;12.59;59.28
41234;BME280;26968;42.686;23.352;2022-10-04T19:50:52;95992.00;;;12.20;59.51
41234;BME280;26968;42.686;23.352;2022-10-04T19:53:39;96036.22;;;12.57;59.56
41234;BME280;26968;42.686;23.352;2022-10-04T19:56:19;96024.19;;;12.29;59.31
41234;BME280;26968;42.686;23.352;2022-10-04T20:01:23;96048.16;;;12.54;59.02
41234;BME280;26968;42.686;23.352;2022-10-04T20:03:51;96047.34;;;12.33;59.60
41234;BME280;26968;42.686;23.352;2022-10-04T20:06:38;96049.41;;;12.11;60.33
41234;BME280;26968;42.686;23.352;2022-10-04T20:12:03;96047.53;;;12.02;60.44
41234;BME280;26968;42.686;23.352;2022-10-04T20:21:53;96069.59;;;11.97;60.95
41234;BME280;26968;42.686;23.352;2022-10-04T20:27:05;96075.69;;;11.97;60.74
41234;BME280;26968;42.686;23.352;2022-10-04T20:32:07;96061.81;;;11.90;60.45
41234;BME280;26968;42.686;23.352;2022-10-04T20:37:05;96075.97;;;12.06;61.10
41234;BME280;26968;42.686;23.352;2022-10-04T20:42:09;96078.41;;;12.18;61.12
41234;BME280;26968;42.686;23.352;2022-10-04T20:44:51;96087.75;;;12.25;60.69
41234;BME280;26968;42.686;23.352;2022-10-04T20:47:34;96093.34;;;12.29;60.52
41234;BME280;26968;42.686;23.352;2022-10-04T20:50:36;96095.72;;;12.30;60.64
41234;BME280;26968;42.686;23.352;2022-10-04T20:53:14;96085.13;;;12.35;61.07
41234;BME280;26968;42.686;23.352;2022-10-04T20:55:43;96087.50;;;12.32;61.04
41234;BME280;26968;42.686;23.352;2022-10-04T20:58:32;96098.38;;;12.20;61.69
41234;BME280;26968;42.686;23.352;2022-10-04T21:03:39;96064.41;;;11.75;61.65
41234;BME280;26968;42.686;23.352;2022-10-04T21:06:09;96091.59;;;11.87;62.09
41234;BME280;26968;42.686;23.352;2022-10-04T21:08:36;96101.50;;;12.02;62.03
41234;BME280;26968;42.686;23.352;2022-10-04T21:13:54;96085.97;;;11.84;62.00
41234;BME280;26968;42.686;23.352;2022-10-04T21:25:02;96097.47;;;11.94;62.16
41234;BME280;26968;42.686;23.352;2022-10-04T21:30:20;96049.94;;;11.56;63.04
41234;BME280;26968;42.686;23.352;2022-10-04T21:32:45;96105.44;;;11.94;62.99
41234;BME280;26968;42.686;23.352;2022-10-04T21:35:13;96107.31;;;11.94;62.63
41234;BME280;26968;42.686;23.352;2022-10-04T21:37:40;96109.16;;;11.93;62.52
41234;BME280;26968;42.686;23.352;2022-10-04T21:40:07;96109.97;;;11.94;62.87
41234;BME280;26968;42.686;23.352;2022-10-04T21:42:32;96096.94;;;11.92;62.91
41234;BME280;26968;42.686;23.352;2022-10-04T21:44:58;96089.75;;;11.88;62.83
41234;BME280;26968;42.686;23.352;2022-10-04T21:47:26;96097.72;;;11.88;63.34
41234;BME280;26968;42.686;23.352;2022-10-04T21:49:52;96033.63;;;11.37;63.72
41234;BME280;26968;42.686;23.352;2022-10-04T21:52:19;96033.69;;;11.47;63.72
41234;BME280;26968;42.686;23.352;2022-10-04T21:54:46;96102.13;;;11.72;63.47
41234;BME280;26968;42.686;23.352;2022-10-04T21:57:12;96104.47;;;11.64;63.58
41234;BME280;26968;42.686;23.352;2022-10-04T21:59:37;96103.97;;;11.67;63.21
41234;BME280;26968;42.686;23.352;2022-10-04T22:02:04;96054.38;;;11.35;62.68
41234;BME280;26968;42.686;23.352;2022-10-04T22:04:31;96102.03;;;11.57;63.21
41234;BME280;26968;42.686;23.352;2022-10-04T22:06:57;96107.34;;;11.57;63.45
41234;BME280;26968;42.686;23.352;2022-10-04T22:09:25;96042.28;;;11.17;62.83
41234;BME280;26968;42.686;23.352;2022-10-04T22:11:51;96028.47;;;11.15;62.99
41234;BME280;26968;42.686;23.352;2022-10-04T22:14:17;96116.16;;;11.68;63.60
41234;BME280;26968;42.686;23.352;2022-10-04T22:16:44;96034.03;;;11.14;63.25
41234;BME280;26968;42.686;23.352;2022-10-04T22:19:11;96122.56;;;11.67;63.69
41234;BME280;26968;42.686;23.352;2022-10-04T22:21:38;96120.41;;;11.64;64.13
41234;BME280;26968;42.686;23.352;2022-10-04T22:24:14;96122.47;;;11.51;64.52
41234;BME280;26968;42.686;23.352;2022-10-04T22:26:40;96122.97;;;11.53;64.42
41234;BME280;26968;42.686;23.352;2022-10-04T22:29:12;96124.84;;;11.53;64.65
41234;BME280;26968;42.686;23.352;2022-10-04T22:31:48;96112.22;;;11.33;63.87
41234;BME280;26968;42.686;23.352;2022-10-04T22:34:19;96123.66;;;11.34;64.52
41234;BME280;26968;42.686;23.352;2022-10-04T22:36:48;96083.81;;;10.97;64.39
41234;BME280;26968;42.686;23.352;2022-10-04T22:39:17;96127.59;;;11.26;64.55
41234;BME280;26968;42.686;23.352;2022-10-04T22:41:55;96134.50;;;11.27;64.17
41234;BME280;26968;42.686;23.352;2022-10-04T22:44:26;96131.31;;;11.30;64.63
41234;BME280;26968;42.686;23.352;2022-10-04T22:46:58;96140.56;;;11.22;64.27
41234;BME280;26968;42.686;23.352;2022-10-04T22:49:36;96139.28;;;11.30;64.36
41234;BME280;26968;42.686;23.352;2022-10-04T22:52:14;96135.78;;;11.19;65.01
41234;BME280;26968;42.686;23.352;2022-10-04T22:54:45;96150.84;;;11.14;65.43
41234;BME280;26968;42.686;23.352;2022-10-04T22:57:15;96152.75;;;11.18;65.12
41234;BME280;26968;42.686;23.352;2022-10-04T22:59:45;96139.31;;;10.98;65.29
41234;BME280;26968;42.686;23.352;2022-10-04T23:02:22;96122.31;;;10.99;65.35
41234;BME280;26968;42.686;23.352;2022-10-04T23:04:53;96131.97;;;11.10;65.56
41234;BME280;26968;42.686;23.352;2022-10-04T23:07:21;96132.88;;;11.21;65.20
41234;BME280;26968;42.686;23.352;2022-10-04T23:09:46;96139.34;;;11.35;64.93
41234;BME280;26968;42.686;23.352;2022-10-04T23:12:12;96134.84;;;11.36;64.93
41234;BME280;26968;42.686;23.352;2022-10-04T23:14:38;96133.25;;;11.40;64.78
41234;BME280;26968;42.686;23.352;2022-10-04T23:17:32;96127.44;;;11.43;65.04
41234;BME280;26968;42.686;23.352;2022-10-04T23:20:16;96138.34;;;11.46;64.85
41234;BME280;26968;42.686;23.352;2022-10-04T23:22:46;96136.47;;;11.42;65.19
41234;BME280;26968;42.686;23.352;2022-10-04T23:25:17;96139.59;;;11.34;65.64
41234;BME280;26968;42.686;23.352;2022-10-04T23:27:43;96135.56;;;11.31;65.67
41234;BME280;26968;42.686;23.352;2022-10-04T23:30:16;96146.19;;;11.26;66.25
41234;BME280;26968;42.686;23.352;2022-10-04T23:32:47;96150.38;;;11.22;66.19
41234;BME280;26968;42.686;23.352;2022-10-04T23:35:23;96137.28;;;11.10;65.78
41234;BME280;26968;42.686;23.352;2022-10-04T23:37:50;96151.59;;;11.09;66.94